createdAt,value
2019-04-25T00:00:43.182Z,1001.15
2019-04-25T00:01:43.971Z,1001.11
2019-04-25T00:02:43.985Z,1001.13
2019-04-25T00:03:43.676Z,1001.04
2019-04-25T00:04:43.470Z,1001.05
2019-04-25T00:05:43.584Z,1001.01
2019-04-25T00:06:43.942Z,1001.01
2019-04-25T00:07:43.825Z,1001.15
2019-04-25T00:08:44.039Z,1001.21
2019-04-25T00:09:43.978Z,1001.29
2019-04-25T00:10:43.799Z,1001.31
2019-04-25T00:11:43.654Z,1001.31
2019-04-25T00:12:43.589Z,1001.25
2019-04-25T00:13:44.008Z,1001.23
2019-04-25T00:14:43.723Z,1001.21
2019-04-25T00:15:44.891Z,1001.23
2019-04-25T00:16:44.034Z,1001.36
2019-04-25T00:17:43.328Z,1001.45
2019-04-25T00:18:43.104Z,1001.49
2019-04-25T00:19:43.330Z,1001.46
2019-04-25T00:20:43.609Z,1001.45
2019-04-25T00:21:43.353Z,1001.49
2019-04-25T00:22:43.671Z,1001.42
2019-04-25T00:23:43.698Z,1001.39
2019-04-25T00:24:43.310Z,1001.45
2019-04-25T00:25:45.852Z,1001.38
2019-04-25T00:26:44.102Z,1001.31
2019-04-25T00:27:43.574Z,1001.37
2019-04-25T00:28:44.355Z,1001.33
2019-04-25T00:29:43.904Z,1001.31
2019-04-25T00:30:44.414Z,1001.40
2019-04-25T00:31:43.714Z,1001.44
2019-04-25T00:32:44.093Z,1001.50
2019-04-25T00:33:44.200Z,1001.53
2019-04-25T00:34:44.242Z,1001.46
2019-04-25T00:35:44.579Z,1001.50
2019-04-25T00:36:43.493Z,1001.45
2019-04-25T00:37:44.327Z,1001.31
2019-04-25T00:38:45.476Z,1001.28
2019-04-25T00:39:44.879Z,1001.38
2019-04-25T00:40:43.510Z,1001.48
2019-04-25T00:41:44.995Z,1001.51
2019-04-25T00:42:43.601Z,1001.51
2019-04-25T00:43:44.001Z,1001.57
2019-04-25T00:44:44.585Z,1001.50
2019-04-25T00:45:44.314Z,1001.55
2019-04-25T00:46:46.354Z,1001.34
2019-04-25T00:47:44.606Z,1001.32
2019-04-25T00:48:43.441Z,1001.28
2019-04-25T00:49:44.037Z,1001.21
2019-04-25T00:50:43.328Z,1001.25
2019-04-25T00:51:43.456Z,1001.27
2019-04-25T00:52:43.599Z,1001.33
2019-04-25T00:53:43.422Z,1001.43
2019-04-25T00:54:43.149Z,1001.44
2019-04-25T00:55:43.124Z,1001.44
2019-04-25T00:56:45.642Z,1001.46
2019-04-25T00:57:43.508Z,1001.44
2019-04-25T00:58:43.949Z,1001.43
2019-04-25T00:59:43.915Z,1001.49
2019-04-25T01:00:43.347Z,1001.48
2019-04-25T01:01:44.208Z,1001.43
2019-04-25T01:02:44.023Z,1001.43
2019-04-25T01:03:43.492Z,1001.44
2019-04-25T01:04:43.725Z,1001.44
2019-04-25T01:05:43.385Z,1001.45
2019-04-25T01:06:42.281Z,1001.41
2019-04-25T01:07:42.331Z,1001.48
2019-04-25T01:08:42.253Z,1001.36
2019-04-25T01:09:42.427Z,1001.43
2019-04-25T01:10:42.234Z,1001.45
2019-04-25T01:11:42.496Z,1001.48
2019-04-25T01:12:42.209Z,1001.59
2019-04-25T01:13:42.334Z,1001.57
2019-04-25T01:14:42.187Z,1001.56
2019-04-25T01:15:42.559Z,1001.56
2019-04-25T01:16:42.173Z,1001.62
2019-04-25T01:17:42.156Z,1001.63
2019-04-25T01:18:50.956Z,1001.62
2019-04-25T01:20:24.026Z,1001.64
2019-04-25T01:21:25.262Z,1001.61
2019-04-25T01:22:23.767Z,1001.61
2019-04-25T01:23:23.800Z,1001.56
2019-04-25T01:24:24.102Z,1001.71
2019-04-25T01:25:23.729Z,1001.62
2019-04-25T01:26:24.029Z,1001.64
2019-04-25T01:27:33.301Z,1001.71
2019-04-25T01:29:05.883Z,1001.82
2019-04-25T01:30:06.155Z,1001.75
2019-04-25T01:31:05.869Z,1001.75
2019-04-25T01:32:05.826Z,1001.73
2019-04-25T01:33:05.810Z,1001.68
2019-04-25T01:34:05.809Z,1001.73
2019-04-25T01:35:05.792Z,1001.64
2019-04-25T01:36:05.807Z,1001.68
2019-04-25T01:37:05.765Z,1001.74
2019-04-25T01:38:05.759Z,1001.68
2019-04-25T01:39:05.744Z,1001.71
2019-04-25T01:40:05.740Z,1001.66
2019-04-25T01:41:05.732Z,1001.67
2019-04-25T01:42:05.733Z,1001.68
2019-04-25T01:43:05.698Z,1001.66
2019-04-25T01:44:05.769Z,1001.74
2019-04-25T01:45:05.683Z,1001.77
2019-04-25T01:46:05.668Z,1001.69
2019-04-25T01:47:05.672Z,1001.60
2019-04-25T01:48:05.683Z,1001.61
2019-04-25T01:49:05.640Z,1001.54
2019-04-25T01:50:05.625Z,1001.55
2019-04-25T01:51:05.621Z,1001.56
2019-04-25T01:52:05.607Z,1001.60
2019-04-25T01:53:05.616Z,1001.62
2019-04-25T01:54:05.609Z,1001.70
2019-04-25T01:55:05.670Z,1001.68
2019-04-25T01:56:07.774Z,1001.65
2019-04-25T01:57:05.566Z,1001.72
2019-04-25T01:58:05.562Z,1001.80
2019-04-25T01:59:05.561Z,1001.78
2019-04-25T02:00:05.540Z,1001.86
2019-04-25T02:01:05.525Z,1001.79
2019-04-25T02:02:06.744Z,1001.79
2019-04-25T02:03:05.523Z,1001.78
2019-04-25T02:04:05.513Z,1001.80
2019-04-25T02:05:05.506Z,1001.76
2019-04-25T02:06:05.550Z,1001.81
2019-04-25T02:07:05.556Z,1001.74
2019-04-25T02:08:06.920Z,1001.65
2019-04-25T02:09:14.219Z,1001.65
2019-04-25T02:10:47.610Z,1001.62
2019-04-25T02:11:56.827Z,1001.55
2019-04-25T02:13:29.834Z,1001.51
2019-04-25T02:14:29.810Z,1001.57
2019-04-25T02:15:29.790Z,1001.49
2019-04-25T02:16:29.828Z,1001.52
2019-04-25T02:17:29.762Z,1001.48
2019-04-25T02:18:29.774Z,1001.61
2019-04-25T02:19:36.892Z,1001.64
2019-04-25T02:21:11.399Z,1001.74
2019-04-25T02:22:11.376Z,1001.70
2019-04-25T02:23:55.416Z,1001.64
2019-04-25T02:24:54.968Z,1001.76
2019-04-25T02:26:06.753Z,1001.81
2019-04-25T02:26:55.246Z,1001.94
2019-04-25T02:27:55.051Z,1001.97
2019-04-25T02:28:55.190Z,1001.98
2019-04-25T02:29:55.196Z,1001.99
2019-04-25T02:30:57.357Z,1002.18
2019-04-25T02:31:58.498Z,1002.12
2019-04-25T02:32:58.131Z,1002.09
2019-04-25T02:34:01.163Z,1002.06
2019-04-25T02:35:35.571Z,1002.17
2019-04-25T02:36:35.566Z,1002.24
2019-04-25T02:37:35.539Z,1002.20
2019-04-25T02:38:35.526Z,1002.26
2019-04-25T02:39:37.354Z,1002.32
2019-04-25T02:40:35.500Z,1002.39
2019-04-25T02:41:35.499Z,1002.36
2019-04-25T02:42:35.478Z,1002.43
2019-04-25T02:43:35.465Z,1002.63
2019-04-25T02:44:35.456Z,1002.53
2019-04-25T02:45:35.444Z,1002.49
2019-04-25T02:46:37.282Z,1002.60
2019-04-25T02:47:35.431Z,1002.69
2019-04-25T02:48:35.415Z,1002.69
2019-04-25T02:49:38.893Z,1002.64
2019-04-25T02:50:35.385Z,1002.66
2019-04-25T02:51:35.377Z,1002.70
2019-04-25T02:52:35.367Z,1002.71
2019-04-25T02:53:37.409Z,1002.76
2019-04-25T02:54:35.342Z,1002.75
2019-04-25T02:55:37.571Z,1002.79
2019-04-25T02:56:38.684Z,1002.80
2019-04-25T02:57:35.310Z,1002.81
2019-04-25T02:58:35.302Z,1002.74
2019-04-25T02:59:36.994Z,1002.71
2019-04-25T03:00:51.648Z,1002.65
2019-04-25T03:01:36.266Z,1002.61
2019-04-25T03:02:36.999Z,1002.54
2019-04-25T03:03:35.252Z,1002.59
2019-04-25T03:04:35.246Z,1002.55
2019-04-25T03:05:35.673Z,1002.53
2019-04-25T03:06:35.326Z,1002.48
2019-04-25T03:07:35.199Z,1002.52
2019-04-25T03:08:35.556Z,1002.51
2019-04-25T03:09:35.421Z,1002.62
2019-04-25T03:10:35.165Z,1002.63
2019-04-25T03:11:35.167Z,1002.55
2019-04-25T03:12:36.705Z,1002.58
2019-04-25T03:13:35.132Z,1002.63
2019-04-25T03:14:35.471Z,1002.64
2019-04-25T03:15:36.589Z,1002.72
2019-04-25T03:16:35.098Z,1002.69
2019-04-25T03:17:35.087Z,1002.68
2019-04-25T03:18:35.076Z,1002.75
2019-04-25T03:19:35.070Z,1002.78
2019-04-25T03:20:35.556Z,1002.84
2019-04-25T03:21:35.444Z,1002.82
2019-04-25T03:22:35.034Z,1002.77
2019-04-25T03:23:35.461Z,1002.77
2019-04-25T03:24:35.245Z,1002.84
2019-04-25T03:25:35.006Z,1002.86
2019-04-25T03:26:40.394Z,1002.90
2019-04-25T03:27:35.976Z,1002.86
2019-04-25T03:28:34.968Z,1002.91
2019-04-25T03:29:34.950Z,1002.90
2019-04-25T03:30:35.628Z,1002.94
2019-04-25T03:31:35.167Z,1002.97
2019-04-25T03:32:35.518Z,1002.89
2019-04-25T03:33:37.805Z,1002.90
2019-04-25T03:34:35.278Z,1002.90
2019-04-25T03:35:34.890Z,1002.95
2019-04-25T03:36:34.880Z,1002.93
2019-04-25T03:37:35.217Z,1002.88
2019-04-25T03:38:34.862Z,1002.99
2019-04-25T03:39:34.848Z,1002.96
2019-04-25T03:40:34.838Z,1003.03
2019-04-25T03:41:34.818Z,1003.01
2019-04-25T03:42:34.824Z,1003.12
2019-04-25T03:43:34.797Z,1003.07
2019-04-25T03:44:34.783Z,1003.09
2019-04-25T03:45:34.774Z,1003.08
2019-04-25T03:46:34.765Z,1003.08
2019-04-25T03:47:34.758Z,1003.06
2019-04-25T03:48:36.840Z,1003.13
2019-04-25T03:49:34.736Z,1003.17
2019-04-25T03:50:34.718Z,1003.15
2019-04-25T03:51:34.711Z,1003.16
2019-04-25T03:52:34.913Z,1003.14
2019-04-25T03:53:34.691Z,1003.15
2019-04-25T03:54:34.680Z,1003.17
2019-04-25T03:55:35.916Z,1003.16
2019-04-25T03:56:34.652Z,1003.14
2019-04-25T03:57:34.647Z,1003.21
2019-04-25T03:58:34.636Z,1003.25
2019-04-25T03:59:34.652Z,1003.28
2019-04-25T04:00:36.448Z,1003.34
2019-04-25T04:01:34.610Z,1003.36
2019-04-25T04:02:34.595Z,1003.28
2019-04-25T04:03:34.578Z,1003.27
2019-04-25T04:04:34.572Z,1003.35
2019-04-25T04:05:41.696Z,1003.45
2019-04-25T04:07:16.711Z,1003.40
2019-04-25T04:08:24.384Z,1003.46
2019-04-25T04:09:24.178Z,1003.40
2019-04-25T04:10:58.349Z,1003.51
2019-04-25T04:11:58.314Z,1003.53
2019-04-25T04:13:40.432Z,1003.68
2019-04-25T04:14:39.961Z,1003.65
2019-04-25T04:16:23.172Z,1003.73
2019-04-25T04:17:21.597Z,1003.71
2019-04-25T04:19:04.912Z,1003.91
2019-04-25T04:20:03.938Z,1003.81
2019-04-25T04:21:45.876Z,1003.86
2019-04-25T04:22:45.860Z,1003.81
2019-04-25T04:23:45.864Z,1003.83
2019-04-25T04:24:45.846Z,1003.85
2019-04-25T04:25:45.835Z,1003.97
2019-04-25T04:26:45.818Z,1003.98
2019-04-25T04:27:45.810Z,1004.06
2019-04-25T04:28:45.798Z,1004.02
2019-04-25T04:29:45.789Z,1004.04
2019-04-25T04:30:45.775Z,1004.08
2019-04-25T04:31:45.771Z,1004.06
2019-04-25T04:32:45.758Z,1004.08
2019-04-25T04:33:45.771Z,1004.09
2019-04-25T04:34:45.748Z,1004.09
2019-04-25T04:35:45.722Z,1004.12
2019-04-25T04:36:46.647Z,1004.21
2019-04-25T04:37:45.704Z,1004.18
2019-04-25T04:38:45.706Z,1004.17
2019-04-25T04:39:45.676Z,1004.25
2019-04-25T04:40:45.677Z,1004.27
2019-04-25T04:41:45.659Z,1004.34
2019-04-25T04:42:45.659Z,1004.36
2019-04-25T04:43:45.644Z,1004.41
2019-04-25T04:44:45.623Z,1004.43
2019-04-25T04:45:45.804Z,1004.45
2019-04-25T04:46:45.611Z,1004.47
2019-04-25T04:47:45.591Z,1004.41
2019-04-25T04:48:45.580Z,1004.47
2019-04-25T04:49:45.570Z,1004.49
2019-04-25T04:50:45.553Z,1004.50
2019-04-25T04:51:45.551Z,1004.56
2019-04-25T04:52:45.538Z,1004.46
2019-04-25T04:53:45.527Z,1004.56
2019-04-25T04:54:45.513Z,1004.60
2019-04-25T04:55:45.500Z,1004.64
2019-04-25T04:56:45.497Z,1004.66
2019-04-25T04:57:45.485Z,1004.65
2019-04-25T04:58:45.467Z,1004.67
2019-04-25T04:59:45.466Z,1004.70
2019-04-25T05:00:45.449Z,1004.70
2019-04-25T05:01:45.445Z,1004.72
2019-04-25T05:02:45.432Z,1004.69
2019-04-25T05:03:45.423Z,1004.78
2019-04-25T05:04:45.407Z,1004.79
2019-04-25T05:05:45.403Z,1004.84
2019-04-25T05:06:45.392Z,1004.83
2019-04-25T05:07:45.373Z,1004.86
2019-04-25T05:08:45.367Z,1004.82
2019-04-25T05:09:45.364Z,1004.88
2019-04-25T05:10:45.338Z,1004.89
2019-04-25T05:11:45.336Z,1004.89
2019-04-25T05:12:45.323Z,1004.84
2019-04-25T05:13:45.310Z,1004.85
2019-04-25T05:14:45.304Z,1004.73
2019-04-25T05:15:45.283Z,1004.89
2019-04-25T05:16:45.277Z,1004.86
2019-04-25T05:17:45.267Z,1004.88
2019-04-25T05:18:45.261Z,1004.93
2019-04-25T05:19:45.255Z,1004.92
2019-04-25T05:20:45.237Z,1004.91
2019-04-25T05:21:45.643Z,1004.99
2019-04-25T05:22:45.230Z,1004.97
2019-04-25T05:23:45.205Z,1004.99
2019-04-25T05:24:45.198Z,1004.97
2019-04-25T05:25:45.180Z,1004.98
2019-04-25T05:26:45.170Z,1005.05
2019-04-25T05:27:57.842Z,1005.05
2019-04-25T05:28:46.149Z,1005.07
2019-04-25T05:29:45.137Z,1005.11
2019-04-25T05:30:45.135Z,1005.11
2019-04-25T05:31:45.577Z,1005.14
2019-04-25T05:32:45.170Z,1005.07
2019-04-25T05:33:45.095Z,1005.16
2019-04-25T05:34:46.180Z,1005.18
2019-04-25T05:35:45.073Z,1005.23
2019-04-25T05:36:45.079Z,1005.21
2019-04-25T05:37:45.046Z,1005.21
2019-04-25T05:38:45.192Z,1005.32
2019-04-25T05:39:45.035Z,1005.31
2019-04-25T05:40:45.019Z,1005.36
2019-04-25T05:41:45.003Z,1005.29
2019-04-25T05:42:44.990Z,1005.33
2019-04-25T05:43:44.982Z,1005.40
2019-04-25T05:44:44.967Z,1005.38
2019-04-25T05:45:44.963Z,1005.37
2019-04-25T05:46:45.329Z,1005.33
2019-04-25T05:47:44.937Z,1005.33
2019-04-25T05:48:44.925Z,1005.37
2019-04-25T05:49:44.918Z,1005.36
2019-04-25T05:50:44.900Z,1005.40
2019-04-25T05:51:44.899Z,1005.41
2019-04-25T05:52:45.940Z,1005.41
2019-04-25T05:53:47.059Z,1005.49
2019-04-25T05:54:44.860Z,1005.49
2019-04-25T05:55:44.849Z,1005.54
2019-04-25T05:56:44.846Z,1005.53
2019-04-25T05:57:49.573Z,1005.48
2019-04-25T05:58:45.815Z,1005.49
2019-04-25T05:59:44.803Z,1005.44
2019-04-25T06:00:44.795Z,1005.47
2019-04-25T06:01:44.782Z,1005.42
2019-04-25T06:02:46.183Z,1005.51
2019-04-25T06:03:44.775Z,1005.48
2019-04-25T06:04:44.745Z,1005.50
2019-04-25T06:05:44.743Z,1005.52
2019-04-25T06:06:44.731Z,1005.62
2019-04-25T06:07:44.711Z,1005.63
2019-04-25T06:08:44.717Z,1005.70
2019-04-25T06:09:44.738Z,1005.68
2019-04-25T06:10:45.231Z,1005.70
2019-04-25T06:11:44.674Z,1005.77
2019-04-25T06:12:44.662Z,1005.68
2019-04-25T06:13:44.655Z,1005.71
2019-04-25T06:14:44.635Z,1005.67
2019-04-25T06:15:44.627Z,1005.67
2019-04-25T06:16:44.618Z,1005.67
2019-04-25T06:17:44.605Z,1005.72
2019-04-25T06:18:44.597Z,1005.65
2019-04-25T06:19:44.584Z,1005.69
2019-04-25T06:20:44.575Z,1005.77
2019-04-25T06:21:44.557Z,1005.65
2019-04-25T06:22:44.552Z,1005.71
2019-04-25T06:23:46.076Z,1005.73
2019-04-25T06:24:44.556Z,1005.72
2019-04-25T06:25:44.532Z,1005.70
2019-04-25T06:26:44.510Z,1005.80
2019-04-25T06:27:51.177Z,1005.77
2019-04-25T06:28:53.661Z,1005.84
2019-04-25T06:29:57.332Z,1005.83
2019-04-25T06:30:45.462Z,1005.90
2019-04-25T06:31:44.456Z,1005.95
2019-04-25T06:32:44.457Z,1005.91
2019-04-25T06:33:44.479Z,1005.95
2019-04-25T06:34:44.479Z,1005.98
2019-04-25T06:35:44.415Z,1005.98
2019-04-25T06:36:44.399Z,1005.99
2019-04-25T06:37:44.386Z,1006.02
2019-04-25T06:38:44.413Z,1005.98
2019-04-25T06:39:44.368Z,1005.98
2019-04-25T06:40:44.355Z,1005.99
2019-04-25T06:41:44.371Z,1006.01
2019-04-25T06:42:46.611Z,1005.96
2019-04-25T06:43:44.412Z,1005.97
2019-04-25T06:44:44.310Z,1005.97
2019-04-25T06:45:44.311Z,1005.99
2019-04-25T06:46:44.294Z,1006.03
2019-04-25T06:47:44.363Z,1006.04
2019-04-25T06:48:45.621Z,1006.02
2019-04-25T06:49:44.275Z,1006.04
2019-04-25T06:50:44.249Z,1005.99
2019-04-25T06:51:46.094Z,1006.04
2019-04-25T06:52:44.229Z,1006.02
2019-04-25T06:53:44.213Z,1006.00
2019-04-25T06:54:44.207Z,1005.99
2019-04-25T06:55:44.992Z,1006.01
2019-04-25T06:56:44.210Z,1006.03
2019-04-25T06:57:44.211Z,1006.08
2019-04-25T06:58:44.166Z,1006.08
2019-04-25T06:59:44.149Z,1006.09
2019-04-25T07:00:57.198Z,1006.17
2019-04-25T07:01:45.127Z,1006.15
2019-04-25T07:02:44.112Z,1006.11
2019-04-25T07:03:44.281Z,1006.10
2019-04-25T07:04:45.642Z,1006.19
2019-04-25T07:05:44.087Z,1006.16
2019-04-25T07:06:45.469Z,1006.09
2019-04-25T07:07:45.464Z,1006.12
2019-04-25T07:08:44.733Z,1006.15
2019-04-25T07:09:44.073Z,1006.14
2019-04-25T07:10:44.632Z,1006.10
2019-04-25T07:11:44.239Z,1006.15
2019-04-25T07:12:51.147Z,1006.19
2019-04-25T07:14:26.719Z,1006.20
2019-04-25T07:15:26.946Z,1006.15
2019-04-25T07:16:26.049Z,1006.24
2019-04-25T07:17:25.860Z,1006.20
2019-04-25T07:18:31.210Z,1006.27
2019-04-25T07:19:28.263Z,1006.28
2019-04-25T07:20:27.004Z,1006.31
2019-04-25T07:21:25.942Z,1006.26
2019-04-25T07:22:26.031Z,1006.34
2019-04-25T07:23:25.550Z,1006.33
2019-04-25T07:24:26.902Z,1006.32
2019-04-25T07:25:27.282Z,1006.31
2019-04-25T07:26:26.871Z,1006.31
2019-04-25T07:27:26.588Z,1006.32
2019-04-25T07:28:29.042Z,1006.35
2019-04-25T07:29:26.937Z,1006.35
2019-04-25T07:30:31.954Z,1006.36
2019-04-25T07:31:26.866Z,1006.36
2019-04-25T07:32:29.627Z,1006.35
2019-04-25T07:33:27.318Z,1006.42
2019-04-25T07:34:26.541Z,1006.41
2019-04-25T07:35:25.418Z,1006.46
2019-04-25T07:36:25.794Z,1006.48
2019-04-25T07:37:26.076Z,1006.49
2019-04-25T07:38:25.632Z,1006.48
2019-04-25T07:39:25.623Z,1006.55
2019-04-25T07:40:25.691Z,1006.44
2019-04-25T07:41:26.027Z,1006.51
2019-04-25T07:42:26.040Z,1006.50
2019-04-25T07:43:25.868Z,1006.56
2019-04-25T07:44:37.966Z,1006.54
2019-04-25T07:45:27.089Z,1006.58
2019-04-25T07:46:26.279Z,1006.62
2019-04-25T07:47:26.037Z,1006.58
2019-04-25T07:48:26.691Z,1006.63
2019-04-25T07:49:26.706Z,1006.60
2019-04-25T07:50:26.840Z,1006.66
2019-04-25T07:51:26.736Z,1006.59
2019-04-25T07:52:25.223Z,1006.58
2019-04-25T07:53:28.071Z,1006.64
2019-04-25T07:54:26.403Z,1006.64
2019-04-25T07:55:25.182Z,1006.60
2019-04-25T07:56:25.175Z,1006.64
2019-04-25T07:57:25.165Z,1006.65
2019-04-25T07:58:38.225Z,1006.63
2019-04-25T07:59:27.388Z,1006.62
2019-04-25T08:00:25.131Z,1006.69
2019-04-25T08:01:25.119Z,1006.73
2019-04-25T08:02:25.119Z,1006.68
2019-04-25T08:03:25.094Z,1006.71
2019-04-25T08:04:25.081Z,1006.70
2019-04-25T08:05:25.080Z,1006.65
2019-04-25T08:06:25.061Z,1006.65
2019-04-25T08:07:25.044Z,1006.70
2019-04-25T08:08:25.040Z,1006.72
2019-04-25T08:09:25.027Z,1006.72
2019-04-25T08:10:25.036Z,1006.76
2019-04-25T08:11:25.004Z,1006.75
2019-04-25T08:12:25.306Z,1006.73
2019-04-25T08:13:24.981Z,1006.75
2019-04-25T08:14:24.965Z,1006.76
2019-04-25T08:15:24.953Z,1006.78
2019-04-25T08:16:24.948Z,1006.77
2019-04-25T08:17:24.943Z,1006.77
2019-04-25T08:18:25.440Z,1006.74
2019-04-25T08:19:24.926Z,1006.78
2019-04-25T08:20:24.897Z,1006.71
2019-04-25T08:21:24.884Z,1006.79
2019-04-25T08:22:24.888Z,1006.72
2019-04-25T08:23:24.865Z,1006.71
2019-04-25T08:24:24.865Z,1006.81
2019-04-25T08:25:24.846Z,1006.84
2019-04-25T08:26:24.833Z,1006.84
2019-04-25T08:27:24.820Z,1006.81
2019-04-25T08:28:24.810Z,1006.83
2019-04-25T08:29:25.443Z,1006.83
2019-04-25T08:30:24.850Z,1006.82
2019-04-25T08:31:24.792Z,1006.84
2019-04-25T08:32:25.398Z,1006.80
2019-04-25T08:33:24.756Z,1006.82
2019-04-25T08:34:24.750Z,1006.95
2019-04-25T08:35:24.744Z,1006.88
2019-04-25T08:36:24.721Z,1006.91
2019-04-25T08:37:24.711Z,1006.94
2019-04-25T08:38:24.702Z,1006.91
2019-04-25T08:39:24.689Z,1006.90
2019-04-25T08:40:24.682Z,1006.95
2019-04-25T08:41:24.663Z,1006.97
2019-04-25T08:42:24.654Z,1006.98
2019-04-25T08:43:32.556Z,1006.94
2019-04-25T08:45:07.302Z,1006.92
2019-04-25T08:46:07.272Z,1006.90
2019-04-25T08:47:07.260Z,1006.93
2019-04-25T08:48:07.258Z,1006.84
2019-04-25T08:49:07.242Z,1006.95
2019-04-25T08:50:07.233Z,1006.94
2019-04-25T08:51:07.223Z,1006.90
2019-04-25T08:52:07.208Z,1006.93
2019-04-25T08:53:07.192Z,1006.88
2019-04-25T08:54:07.190Z,1006.94
2019-04-25T08:55:07.172Z,1006.98
2019-04-25T08:56:07.172Z,1006.97
2019-04-25T08:57:07.156Z,1007.00
2019-04-25T08:58:07.140Z,1006.90
2019-04-25T08:59:08.105Z,1006.92
2019-04-25T09:00:07.158Z,1006.95
2019-04-25T09:01:07.138Z,1007.00
2019-04-25T09:02:07.097Z,1007.05
2019-04-25T09:03:07.090Z,1006.99
2019-04-25T09:04:07.076Z,1006.98
2019-04-25T09:05:07.066Z,1007.08
2019-04-25T09:06:07.071Z,1006.96
2019-04-25T09:07:07.064Z,1006.98
2019-04-25T09:08:07.034Z,1007.02
2019-04-25T09:09:07.222Z,1007.03
2019-04-25T09:10:07.049Z,1007.02
2019-04-25T09:11:07.000Z,1007.00
2019-04-25T09:12:06.994Z,1006.96
2019-04-25T09:13:06.974Z,1006.99
2019-04-25T09:14:06.962Z,1007.04
2019-04-25T09:15:06.953Z,1007.00
2019-04-25T09:16:06.948Z,1007.03
2019-04-25T09:17:06.933Z,1007.03
2019-04-25T09:18:07.011Z,1007.08
2019-04-25T09:19:06.923Z,1007.02
2019-04-25T09:20:07.006Z,1006.98
2019-04-25T09:21:06.907Z,1007.05
2019-04-25T09:22:06.942Z,1007.01
2019-04-25T09:23:06.953Z,1006.95
2019-04-25T09:24:06.890Z,1006.97
2019-04-25T09:25:06.855Z,1006.98
2019-04-25T09:26:06.856Z,1006.99
2019-04-25T09:27:06.822Z,1006.97
2019-04-25T09:28:06.819Z,1006.95
2019-04-25T09:29:16.814Z,1006.96
2019-04-25T09:30:07.800Z,1006.91
2019-04-25T09:31:06.791Z,1006.99
2019-04-25T09:32:06.767Z,1007.01
2019-04-25T09:33:06.756Z,1007.00
2019-04-25T09:34:06.759Z,1006.94
2019-04-25T09:35:06.734Z,1007.00
2019-04-25T09:36:06.933Z,1006.94
2019-04-25T09:37:06.712Z,1006.93
2019-04-25T09:38:06.705Z,1006.95
2019-04-25T09:39:06.695Z,1007.01
2019-04-25T09:40:06.677Z,1006.99
2019-04-25T09:41:06.666Z,1006.95
2019-04-25T09:42:06.665Z,1006.97
2019-04-25T09:43:06.657Z,1006.87
2019-04-25T09:44:06.638Z,1006.86
2019-04-25T09:45:06.623Z,1006.92
2019-04-25T09:46:06.641Z,1006.94
2019-04-25T09:47:06.600Z,1006.90
2019-04-25T09:48:06.593Z,1006.95
2019-04-25T09:49:06.583Z,1006.87
2019-04-25T09:50:06.587Z,1006.87
2019-04-25T09:51:06.558Z,1006.87
2019-04-25T09:52:06.555Z,1006.86
2019-04-25T09:53:06.539Z,1006.94
2019-04-25T09:54:06.526Z,1006.92
2019-04-25T09:55:06.515Z,1006.87
2019-04-25T09:56:06.501Z,1006.87
2019-04-25T09:57:06.487Z,1006.92
2019-04-25T09:58:06.489Z,1006.88
2019-04-25T09:59:06.466Z,1006.90
2019-04-25T10:00:06.455Z,1006.89
2019-04-25T10:01:06.459Z,1006.89
2019-04-25T10:02:06.435Z,1006.87
2019-04-25T10:03:06.423Z,1006.87
2019-04-25T10:04:06.409Z,1006.84
2019-04-25T10:05:06.402Z,1006.90
2019-04-25T10:06:06.397Z,1006.83
2019-04-25T10:07:06.376Z,1006.83
2019-04-25T10:08:06.363Z,1006.79
2019-04-25T10:09:06.357Z,1006.78
2019-04-25T10:10:06.348Z,1006.82
2019-04-25T10:11:06.337Z,1006.76
2019-04-25T10:12:06.332Z,1006.78
2019-04-25T10:13:06.643Z,1006.76
2019-04-25T10:14:06.303Z,1006.73
2019-04-25T10:15:06.288Z,1006.68
2019-04-25T10:16:13.420Z,1006.69
2019-04-25T10:17:47.937Z,1006.78
2019-04-25T10:18:47.911Z,1006.76
2019-04-25T10:19:48.038Z,1006.67
2019-04-25T10:20:47.892Z,1006.65
2019-04-25T10:21:47.885Z,1006.70
2019-04-25T10:22:47.875Z,1006.64
2019-04-25T10:23:48.241Z,1006.72
2019-04-25T10:24:58.886Z,1006.68
2019-04-25T10:25:48.837Z,1006.64
2019-04-25T10:26:48.152Z,1006.69
2019-04-25T10:27:49.315Z,1006.70
2019-04-25T10:28:47.805Z,1006.73
2019-04-25T10:29:53.457Z,1006.61
2019-04-25T10:30:49.187Z,1006.71
2019-04-25T10:31:47.776Z,1006.73
2019-04-25T10:32:48.045Z,1006.76
2019-04-25T10:33:48.634Z,1006.74
2019-04-25T10:34:47.737Z,1006.71
2019-04-25T10:35:53.181Z,1006.75
2019-04-25T10:36:49.004Z,1006.74
2019-04-25T10:37:48.485Z,1006.71
2019-04-25T10:39:01.982Z,1006.69
2019-04-25T10:39:48.970Z,1006.69
2019-04-25T10:40:47.673Z,1006.76
2019-04-25T10:41:48.292Z,1006.66
2019-04-25T10:42:49.593Z,1006.62
2019-04-25T10:43:48.259Z,1006.62
2019-04-25T10:44:48.339Z,1006.68
2019-04-25T10:45:47.615Z,1006.61
2019-04-25T10:46:48.486Z,1006.60
2019-04-25T10:47:47.591Z,1006.64
2019-04-25T10:48:48.045Z,1006.66
2019-04-25T10:49:47.570Z,1006.59
2019-04-25T10:50:48.429Z,1006.58
2019-04-25T10:51:48.004Z,1006.58
2019-04-25T10:52:48.368Z,1006.54
2019-04-25T10:53:47.530Z,1006.47
2019-04-25T10:54:47.942Z,1006.53
2019-04-25T10:55:47.637Z,1006.54
2019-04-25T10:56:48.377Z,1006.52
2019-04-25T10:57:48.346Z,1006.56
2019-04-25T10:58:47.992Z,1006.56
2019-04-25T11:00:00.419Z,1006.51
2019-04-25T11:00:48.679Z,1006.51
2019-04-25T11:01:47.436Z,1006.54
2019-04-25T11:02:47.526Z,1006.56
2019-04-25T11:03:48.361Z,1006.52
2019-04-25T11:04:48.833Z,1006.46
2019-04-25T11:05:47.596Z,1006.46
2019-04-25T11:06:47.377Z,1006.45
2019-04-25T11:07:47.370Z,1006.45
2019-04-25T11:08:47.362Z,1006.47
2019-04-25T11:09:48.026Z,1006.41
2019-04-25T11:10:49.016Z,1006.42
2019-04-25T11:11:48.140Z,1006.45
2019-04-25T11:12:47.339Z,1006.41
2019-04-25T11:13:47.305Z,1006.40
2019-04-25T11:14:47.293Z,1006.41
2019-04-25T11:15:47.286Z,1006.48
2019-04-25T11:16:48.303Z,1006.44
2019-04-25T11:17:47.975Z,1006.46
2019-04-25T11:18:47.619Z,1006.42
2019-04-25T11:19:47.242Z,1006.46
2019-04-25T11:20:47.226Z,1006.42
2019-04-25T11:21:47.740Z,1006.46
2019-04-25T11:22:47.283Z,1006.43
2019-04-25T11:23:48.794Z,1006.44
2019-04-25T11:24:47.187Z,1006.45
2019-04-25T11:25:47.319Z,1006.43
2019-04-25T11:26:50.133Z,1006.44
2019-04-25T11:27:49.562Z,1006.40
2019-04-25T11:28:47.140Z,1006.45
2019-04-25T11:29:47.180Z,1006.44
2019-04-25T11:30:47.119Z,1006.36
2019-04-25T11:31:47.350Z,1006.44
2019-04-25T11:32:47.938Z,1006.39
2019-04-25T11:33:47.089Z,1006.38
2019-04-25T11:34:47.315Z,1006.36
2019-04-25T11:35:48.101Z,1006.38
2019-04-25T11:36:47.055Z,1006.40
2019-04-25T11:37:48.379Z,1006.34
2019-04-25T11:38:47.400Z,1006.36
2019-04-25T11:39:47.295Z,1006.32
2019-04-25T11:40:49.327Z,1006.40
2019-04-25T11:41:48.240Z,1006.35
2019-04-25T11:42:47.139Z,1006.24
2019-04-25T11:43:46.984Z,1006.29
2019-04-25T11:44:46.965Z,1006.28
2019-04-25T11:45:47.399Z,1006.22
2019-04-25T11:46:46.950Z,1006.30
2019-04-25T11:47:55.262Z,1006.32
2019-04-25T11:49:28.595Z,1006.26
2019-04-25T11:50:28.568Z,1006.29
2019-04-25T11:52:10.212Z,1006.23
2019-04-25T11:53:10.205Z,1006.18
2019-04-25T11:54:10.190Z,1006.13
2019-04-25T11:55:10.191Z,1006.22
2019-04-25T11:56:10.176Z,1006.16
2019-04-25T11:57:10.161Z,1006.18
2019-04-25T11:58:10.148Z,1006.22
2019-04-25T11:59:10.137Z,1006.22
2019-04-25T12:00:21.599Z,1006.14
2019-04-25T12:01:11.114Z,1006.17
2019-04-25T12:02:10.107Z,1006.11
2019-04-25T12:03:10.100Z,1006.21
2019-04-25T12:04:10.087Z,1006.23
2019-04-25T12:05:10.075Z,1006.22
2019-04-25T12:06:11.300Z,1006.26
2019-04-25T12:07:10.048Z,1006.22
2019-04-25T12:08:10.044Z,1006.26
2019-04-25T12:09:10.027Z,1006.27
2019-04-25T12:10:10.021Z,1006.21
2019-04-25T12:11:10.021Z,1006.26
2019-04-25T12:12:09.993Z,1006.23
2019-04-25T12:13:09.986Z,1006.28
2019-04-25T12:14:09.979Z,1006.22
2019-04-25T12:15:09.971Z,1006.21
2019-04-25T12:16:09.954Z,1006.18
2019-04-25T12:17:09.943Z,1006.15
2019-04-25T12:18:09.933Z,1006.17